sensor_id;sensor_type;location;lat;lon;timestamp;pressure;altitude;pressure_sealevel;temperature;humidity
28354;BME280;15603;50.878;8.036;2023-04-06T00:01:04;143417.84;;;0.64;94.30
28354;BME280;15603;50.878;8.036;2023-04-06T00:03:31;143404.56;;;0.58;94.12
28354;BME280;15603;50.878;8.036;2023-04-06T00:05:58;143338.22;;;0.30;95.52
28354;BME280;15603;50.878;8.036;2023-04-06T00:08:26;143386.47;;;0.50;95.50
28354;BME280;15603;50.878;8.036;2023-04-06T00:10:53;143403.34;;;0.57;96.02
28354;BME280;15603;50.878;8.036;2023-04-06T00:13:20;143369.59;;;0.43;96.67
28354;BME280;15603;50.878;8.036;2023-04-06T00:15:47;143392.50;;;0.53;95.64
28354;BME280;15603;50.878;8.036;2023-04-06T00:18:14;143358.69;;;0.38;95.90
28354;BME280;15603;50.878;8.036;2023-04-06T00:20:41;143381.66;;;0.48;96.04
28354;BME280;15603;50.878;8.036;2023-04-06T00:23:08;143381.66;;;0.48;96.07
28354;BME280;15603;50.878;8.036;2023-04-06T00:25:36;143379.22;;;0.47;95.75
28354;BME280;15603;50.878;8.036;2023-04-06T00:28:03;143304.41;;;0.15;95.59
28354;BME280;15603;50.878;8.036;2023-04-06T00:30:30;143352.69;;;0.36;96.59
28354;BME280;15603;50.878;8.036;2023-04-06T00:32:57;143330.97;;;0.27;94.95
28354;BME280;15603;50.878;8.036;2023-04-06T00:35:27;143310.47;;;0.18;95.40
28354;BME280;15603;50.878;8.036;2023-04-06T00:37:54;143310.47;;;0.18;96.05
28354;BME280;15603;50.878;8.036;2023-04-06T00:40:21;143350.28;;;0.35;95.89
28354;BME280;15603;50.878;8.036;2023-04-06T00:42:49;143349.06;;;0.34;95.42
28354;BME280;15603;50.878;8.036;2023-04-06T00:45:16;143321.31;;;0.23;95.35
28354;BME280;15603;50.878;8.036;2023-04-06T00:47:46;143339.41;;;0.30;96.18
28354;BME280;15603;50.878;8.036;2023-04-06T00:50:13;143322.50;;;0.23;96.04
28354;BME280;15603;50.878;8.036;2023-04-06T00:52:40;143309.28;;;0.17;97.26
28354;BME280;15603;50.878;8.036;2023-04-06T00:55:09;143253.78;;;-0.06;96.74
28354;BME280;15603;50.878;8.036;2023-04-06T00:57:40;143299.59;;;0.13;96.36
28354;BME280;15603;50.878;8.036;2023-04-06T01:00:09;143318.94;;;0.22;96.99
28354;BME280;15603;50.878;8.036;2023-04-06T01:02:37;143234.50;;;-0.14;96.65
28354;BME280;15603;50.878;8.036;2023-04-06T01:05:05;143287.56;;;0.08;97.21
28354;BME280;15603;50.878;8.036;2023-04-06T01:07:43;143234.50;;;-0.14;96.55
28354;BME280;15603;50.878;8.036;2023-04-06T01:10:25;143224.88;;;-0.18;97.36
28354;BME280;15603;50.878;8.036;2023-04-06T01:13:00;143220.03;;;-0.21;96.75
28354;BME280;15603;50.878;8.036;2023-04-06T01:15:47;143271.88;;;0.02;97.95
28354;BME280;15603;50.878;8.036;2023-04-06T01:18:25;143245.34;;;-0.10;97.06
28354;BME280;15603;50.878;8.036;2023-04-06T01:20:59;143261.03;;;-0.03;97.14
28354;BME280;15603;50.878;8.036;2023-04-06T01:23:27;143236.94;;;-0.13;97.00
28354;BME280;15603;50.878;8.036;2023-04-06T01:25:54;143217.63;;;-0.22;96.85
28354;BME280;15603;50.878;8.036;2023-04-06T01:28:21;143232.13;;;-0.15;98.67
28354;BME280;15603;50.878;8.036;2023-04-06T01:31:11;143210.41;;;-0.25;96.89
28354;BME280;15603;50.878;8.036;2023-04-06T01:33:45;143193.53;;;-0.32;96.42
28354;BME280;15603;50.878;8.036;2023-04-06T01:36:19;143223.66;;;-0.19;97.64
28354;BME280;15603;50.878;8.036;2023-04-06T01:38:52;143179.06;;;-0.38;97.66
28354;BME280;15603;50.878;8.036;2023-04-06T01:41:24;143182.69;;;-0.36;97.59
28354;BME280;15603;50.878;8.036;2023-04-06T01:43:52;143210.41;;;-0.25;98.25
28354;BME280;15603;50.878;8.036;2023-04-06T01:46:25;143159.78;;;-0.46;97.54
28354;BME280;15603;50.878;8.036;2023-04-06T01:48:52;143205.59;;;-0.27;98.24
28354;BME280;15603;50.878;8.036;2023-04-06T01:51:28;143205.59;;;-0.27;99.50
28354;BME280;15603;50.878;8.036;2023-04-06T01:54:00;143195.94;;;-0.31;98.61
28354;BME280;15603;50.878;8.036;2023-04-06T01:56:46;143203.16;;;-0.28;99.78
28354;BME280;15603;50.878;8.036;2023-04-06T01:59:25;143167.00;;;-0.43;98.52
28354;BME280;15603;50.878;8.036;2023-04-06T02:01:52;143176.63;;;-0.39;98.39
28354;BME280;15603;50.878;8.036;2023-04-06T02:04:20;143174.25;;;-0.40;97.95
28354;BME280;15603;50.878;8.036;2023-04-06T02:06:52;143201.97;;;-0.28;99.73
28354;BME280;15603;50.878;8.036;2023-04-06T02:09:22;143136.84;;;-0.56;98.17
28354;BME280;15603;50.878;8.036;2023-04-06T02:11:49;143150.09;;;-0.50;98.81
28354;BME280;15603;50.878;8.036;2023-04-06T02:14:17;143159.78;;;-0.46;98.71
28354;BME280;15603;50.878;8.036;2023-04-06T02:16:49;143154.91;;;-0.48;98.67
28354;BME280;15603;50.878;8.036;2023-04-06T02:19:17;143154.91;;;-0.48;98.44
28354;BME280;15603;50.878;8.036;2023-04-06T02:21:44;143142.91;;;-0.53;98.63
28354;BME280;15603;50.878;8.036;2023-04-06T02:24:11;143145.28;;;-0.52;99.92
28354;BME280;15603;50.878;8.036;2023-04-06T02:26:38;143082.59;;;-0.79;99.36
28354;BME280;15603;50.878;8.036;2023-04-06T02:29:05;143152.53;;;-0.49;98.92
28354;BME280;15603;50.878;8.036;2023-04-06T02:31:33;143147.72;;;-0.51;99.16
28354;BME280;15603;50.878;8.036;2023-04-06T02:34:01;143152.53;;;-0.49;100.00
28354;BME280;15603;50.878;8.036;2023-04-06T02:36:30;143071.78;;;-0.84;99.45
28354;BME280;15603;50.878;8.036;2023-04-06T02:38:57;143128.44;;;-0.60;99.57
28354;BME280;15603;50.878;8.036;2023-04-06T02:41:24;143094.66;;;-0.74;99.65
28354;BME280;15603;50.878;8.036;2023-04-06T02:43:52;143116.38;;;-0.65;100.00
28354;BME280;15603;50.878;8.036;2023-04-06T02:46:33;143104.31;;;-0.70;99.41
28354;BME280;15603;50.878;8.036;2023-04-06T02:49:00;143053.72;;;-0.91;99.46
28354;BME280;15603;50.878;8.036;2023-04-06T02:51:30;143092.28;;;-0.75;99.08
28354;BME280;15603;50.878;8.036;2023-04-06T02:54:07;143135.66;;;-0.56;100.00
28354;BME280;15603;50.878;8.036;2023-04-06T02:56:34;143086.22;;;-0.77;99.29
28354;BME280;15603;50.878;8.036;2023-04-06T02:59:02;143113.94;;;-0.66;99.24
28354;BME280;15603;50.878;8.036;2023-04-06T03:01:31;143123.63;;;-0.62;100.00
28354;BME280;15603;50.878;8.036;2023-04-06T03:04:03;143089.84;;;-0.76;98.64
28354;BME280;15603;50.878;8.036;2023-04-06T03:06:30;143099.50;;;-0.72;98.70
28354;BME280;15603;50.878;8.036;2023-04-06T03:09:06;143060.97;;;-0.88;99.54
28354;BME280;15603;50.878;8.036;2023-04-06T03:11:34;143099.50;;;-0.72;99.53
28354;BME280;15603;50.878;8.036;2023-04-06T03:14:01;143048.88;;;-0.93;98.91
28354;BME280;15603;50.878;8.036;2023-04-06T03:16:28;143044.06;;;-0.95;97.49
28354;BME280;15603;50.878;8.036;2023-04-06T03:18:56;143005.50;;;-1.12;96.73
28354;BME280;15603;50.878;8.036;2023-04-06T03:21:23;143070.59;;;-0.84;96.71
28354;BME280;15603;50.878;8.036;2023-04-06T03:23:52;143041.66;;;-0.96;95.40
28354;BME280;15603;50.878;8.036;2023-04-06T03:26:19;143060.97;;;-0.88;97.33
28354;BME280;15603;50.878;8.036;2023-04-06T03:28:46;143072.97;;;-0.83;97.33
28354;BME280;15603;50.878;8.036;2023-04-06T03:31:14;143041.66;;;-0.96;96.31
28354;BME280;15603;50.878;8.036;2023-04-06T03:33:58;143062.16;;;-0.88;97.66
28354;BME280;15603;50.878;8.036;2023-04-06T03:36:30;143060.97;;;-0.88;96.52
28354;BME280;15603;50.878;8.036;2023-04-06T03:38:58;143069.41;;;-0.85;97.92
28354;BME280;15603;50.878;8.036;2023-04-06T03:41:25;143003.13;;;-1.13;97.73
28354;BME280;15603;50.878;8.036;2023-04-06T03:44:13;143064.53;;;-0.87;97.02
28354;BME280;15603;50.878;8.036;2023-04-06T03:46:40;143068.16;;;-0.85;98.33
28354;BME280;15603;50.878;8.036;2023-04-06T03:49:07;143064.53;;;-0.87;97.64
28354;BME280;15603;50.878;8.036;2023-04-06T03:51:35;143064.53;;;-0.87;96.76
28354;BME280;15603;50.878;8.036;2023-04-06T03:54:02;143063.34;;;-0.87;96.32
28354;BME280;15603;50.878;8.036;2023-04-06T03:56:29;143063.34;;;-0.87;97.91
28354;BME280;15603;50.878;8.036;2023-04-06T03:58:56;143044.06;;;-0.95;97.74
28354;BME280;15603;50.878;8.036;2023-04-06T04:01:24;143060.97;;;-0.88;97.25
28354;BME280;15603;50.878;8.036;2023-04-06T04:03:51;143044.06;;;-0.95;98.49
28354;BME280;15603;50.878;8.036;2023-04-06T04:06:20;143048.88;;;-0.93;97.70
28354;BME280;15603;50.878;8.036;2023-04-06T04:08:47;143041.66;;;-0.96;97.35
28354;BME280;15603;50.878;8.036;2023-04-06T04:11:14;143070.59;;;-0.84;98.86
28354;BME280;15603;50.878;8.036;2023-04-06T04:13:43;143058.53;;;-0.89;98.60
28354;BME280;15603;50.878;8.036;2023-04-06T04:16:10;143006.75;;;-1.11;99.05
28354;BME280;15603;50.878;8.036;2023-04-06T04:18:37;143051.31;;;-0.92;98.71
28354;BME280;15603;50.878;8.036;2023-04-06T04:21:06;143053.72;;;-0.91;99.07
28354;BME280;15603;50.878;8.036;2023-04-06T04:23:33;143054.91;;;-0.91;99.73
28354;BME280;15603;50.878;8.036;2023-04-06T04:26:03;143022.38;;;-1.05;99.28
28354;BME280;15603;50.878;8.036;2023-04-06T04:28:30;142991.06;;;-1.18;100.00
28354;BME280;15603;50.878;8.036;2023-04-06T04:30:57;143012.75;;;-1.09;100.00
28354;BME280;15603;50.878;8.036;2023-04-06T04:33:24;142989.84;;;-1.19;100.00
28354;BME280;15603;50.878;8.036;2023-04-06T04:35:55;142926.03;;;-1.46;99.84
28354;BME280;15603;50.878;8.036;2023-04-06T04:38:25;143012.75;;;-1.09;98.60
28354;BME280;15603;50.878;8.036;2023-04-06T04:40:54;142929.66;;;-1.44;98.05
28354;BME280;15603;50.878;8.036;2023-04-06T04:43:22;142963.34;;;-1.30;100.00
28354;BME280;15603;50.878;8.036;2023-04-06T04:45:49;143005.50;;;-1.12;99.39
28354;BME280;15603;50.878;8.036;2023-04-06T04:48:26;142979.03;;;-1.23;99.68
28354;BME280;15603;50.878;8.036;2023-04-06T04:50:58;143011.56;;;-1.09;99.17
28354;BME280;15603;50.878;8.036;2023-04-06T04:53:30;142983.84;;;-1.21;99.13
28354;BME280;15603;50.878;8.036;2023-04-06T04:56:05;143012.75;;;-1.09;99.40
28354;BME280;15603;50.878;8.036;2023-04-06T04:58:32;142976.59;;;-1.24;97.84
28354;BME280;15603;50.878;8.036;2023-04-06T05:01:00;143012.75;;;-1.09;99.52
28354;BME280;15603;50.878;8.036;2023-04-06T05:03:27;143017.56;;;-1.07;98.67
28354;BME280;15603;50.878;8.036;2023-04-06T05:06:05;143030.81;;;-1.01;99.60
28354;BME280;15603;50.878;8.036;2023-04-06T05:08:35;143036.81;;;-0.99;97.99
28354;BME280;15603;50.878;8.036;2023-04-06T05:11:02;142959.72;;;-1.31;97.17
28354;BME280;15603;50.878;8.036;2023-04-06T05:13:33;143042.88;;;-0.96;97.72
28354;BME280;15603;50.878;8.036;2023-04-06T05:16:06;143044.06;;;-0.95;98.91
28354;BME280;15603;50.878;8.036;2023-04-06T05:18:34;143057.31;;;-0.90;98.52
28354;BME280;15603;50.878;8.036;2023-04-06T05:21:03;143051.31;;;-0.92;97.96
28354;BME280;15603;50.878;8.036;2023-04-06T05:23:39;143051.31;;;-0.92;97.15
28354;BME280;15603;50.878;8.036;2023-04-06T05:26:06;143052.50;;;-0.92;96.67
28354;BME280;15603;50.878;8.036;2023-04-06T05:28:33;143086.22;;;-0.77;96.58
28354;BME280;15603;50.878;8.036;2023-04-06T05:31:02;143089.84;;;-0.76;97.40
28354;BME280;15603;50.878;8.036;2023-04-06T05:33:36;143077.78;;;-0.81;96.25
28354;BME280;15603;50.878;8.036;2023-04-06T05:36:07;143074.22;;;-0.83;94.93
28354;BME280;15603;50.878;8.036;2023-04-06T05:38:39;143099.50;;;-0.72;96.33
28354;BME280;15603;50.878;8.036;2023-04-06T05:41:26;143109.13;;;-0.68;95.42
28354;BME280;15603;50.878;8.036;2023-04-06T05:43:53;143130.84;;;-0.58;96.14
28354;BME280;15603;50.878;8.036;2023-04-06T05:46:22;143087.47;;;-0.77;95.69
28354;BME280;15603;50.878;8.036;2023-04-06T05:48:51;143153.72;;;-0.49;96.08
28354;BME280;15603;50.878;8.036;2023-04-06T05:51:21;143176.63;;;-0.39;96.20
28354;BME280;15603;50.878;8.036;2023-04-06T05:53:48;143130.84;;;-0.58;93.68
28354;BME280;15603;50.878;8.036;2023-04-06T05:56:16;143156.16;;;-0.48;94.79
28354;BME280;15603;50.878;8.036;2023-04-06T05:58:43;143188.69;;;-0.34;95.16
28354;BME280;15603;50.878;8.036;2023-04-06T06:01:14;143195.94;;;-0.31;95.12
28354;BME280;15603;50.878;8.036;2023-04-06T06:03:45;143224.88;;;-0.18;94.45
28354;BME280;15603;50.878;8.036;2023-04-06T06:06:12;143203.16;;;-0.28;93.47
28354;BME280;15603;50.878;8.036;2023-04-06T06:08:50;143287.56;;;0.08;92.91
28354;BME280;15603;50.878;8.036;2023-04-06T06:11:18;143296.03;;;0.12;92.08
28354;BME280;15603;50.878;8.036;2023-04-06T06:13:47;143335.78;;;0.29;94.10
28354;BME280;15603;50.878;8.036;2023-04-06T06:16:14;143359.94;;;0.39;91.88
28354;BME280;15603;50.878;8.036;2023-04-06T06:18:45;143386.47;;;0.50;92.85
28354;BME280;15603;50.878;8.036;2023-04-06T06:21:12;143411.78;;;0.61;91.90
28354;BME280;15603;50.878;8.036;2023-04-06T06:23:42;143440.78;;;0.73;93.00
28354;BME280;15603;50.878;8.036;2023-04-06T06:26:13;143425.06;;;0.67;91.20
28354;BME280;15603;50.878;8.036;2023-04-06T06:28:40;143437.13;;;0.72;88.97
28354;BME280;15603;50.878;8.036;2023-04-06T06:31:08;143524.00;;;1.09;88.77
28354;BME280;15603;50.878;8.036;2023-04-06T06:33:36;143526.44;;;1.10;88.25
28354;BME280;15603;50.878;8.036;2023-04-06T06:36:03;143562.66;;;1.25;87.80
28354;BME280;15603;50.878;8.036;2023-04-06T06:38:30;143610.91;;;1.46;87.44
28354;BME280;15603;50.878;8.036;2023-04-06T06:40:57;143639.91;;;1.58;87.52
28354;BME280;15603;50.878;8.036;2023-04-06T06:43:28;143664.03;;;1.68;86.90
28354;BME280;15603;50.878;8.036;2023-04-06T06:45:59;143678.53;;;1.74;87.10
28354;BME280;15603;50.878;8.036;2023-04-06T06:48:26;143709.94;;;1.88;84.77
28354;BME280;15603;50.878;8.036;2023-04-06T06:50:53;143738.91;;;2.00;82.39
28354;BME280;15603;50.878;8.036;2023-04-06T06:53:21;143784.84;;;2.20;82.72
28354;BME280;15603;50.878;8.036;2023-04-06T06:55:48;143808.97;;;2.30;82.76
28354;BME280;15603;50.878;8.036;2023-04-06T06:58:19;143865.72;;;2.54;82.32
28354;BME280;15603;50.878;8.036;2023-04-06T07:00:50;143908.06;;;2.72;81.87
28354;BME280;15603;50.878;8.036;2023-04-06T07:03:17;143955.16;;;2.92;79.11
28354;BME280;15603;50.878;8.036;2023-04-06T07:05:48;144043.44;;;3.29;78.60
28354;BME280;15603;50.878;8.036;2023-04-06T07:08:21;144118.38;;;3.61;75.48
28354;BME280;15603;50.878;8.036;2023-04-06T07:10:51;144169.16;;;3.83;70.65
28354;BME280;15603;50.878;8.036;2023-04-06T07:13:19;144161.94;;;3.80;70.48
28354;BME280;15603;50.878;8.036;2023-04-06T07:15:53;144232.06;;;4.09;68.49
28354;BME280;15603;50.878;8.036;2023-04-06T07:18:20;144246.56;;;4.16;69.03
28354;BME280;15603;50.878;8.036;2023-04-06T07:20:48;144326.44;;;4.49;66.03
28354;BME280;15603;50.878;8.036;2023-04-06T07:23:16;144333.72;;;4.52;67.33
28354;BME280;15603;50.878;8.036;2023-04-06T07:25:44;144394.22;;;4.78;65.67
28354;BME280;15603;50.878;8.036;2023-04-06T07:28:11;144370.03;;;4.68;66.02
28354;BME280;15603;50.878;8.036;2023-04-06T07:30:39;144436.56;;;4.96;64.88
28354;BME280;15603;50.878;8.036;2023-04-06T07:33:08;144377.25;;;4.71;65.47
28354;BME280;15603;50.878;8.036;2023-04-06T07:35:36;144466.84;;;5.09;64.05
28354;BME280;15603;50.878;8.036;2023-04-06T07:38:05;144532.22;;;5.37;61.23
28354;BME280;15603;50.878;8.036;2023-04-06T07:40:33;144598.84;;;5.65;59.11
28354;BME280;15603;50.878;8.036;2023-04-06T07:43:00;144640.00;;;5.82;59.65
28354;BME280;15603;50.878;8.036;2023-04-06T07:45:29;144672.75;;;5.96;59.68
28354;BME280;15603;50.878;8.036;2023-04-06T07:47:56;144732.13;;;6.21;57.04
28354;BME280;15603;50.878;8.036;2023-04-06T07:50:25;144780.59;;;6.42;56.28
28354;BME280;15603;50.878;8.036;2023-04-06T07:52:53;144764.88;;;6.35;55.34
28354;BME280;15603;50.878;8.036;2023-04-06T07:55:21;144772.09;;;6.38;55.39
28354;BME280;15603;50.878;8.036;2023-04-06T07:57:48;144827.84;;;6.62;55.32
28354;BME280;15603;50.878;8.036;2023-04-06T08:00:15;144813.31;;;6.56;55.13
28354;BME280;15603;50.878;8.036;2023-04-06T08:02:42;144852.13;;;6.72;55.54
28354;BME280;15603;50.878;8.036;2023-04-06T08:05:09;144870.31;;;6.80;54.78
28354;BME280;15603;50.878;8.036;2023-04-06T08:07:36;144899.38;;;6.92;54.93
28354;BME280;15603;50.878;8.036;2023-04-06T08:10:04;144963.63;;;7.19;53.98
28354;BME280;15603;50.878;8.036;2023-04-06T08:12:32;144992.75;;;7.32;53.61
28354;BME280;15603;50.878;8.036;2023-04-06T08:15:00;144978.16;;;7.25;52.68
28354;BME280;15603;50.878;8.036;2023-04-06T08:17:27;144986.66;;;7.29;53.21
28354;BME280;15603;50.878;8.036;2023-04-06T08:19:57;145093.41;;;7.74;52.74
28354;BME280;15603;50.878;8.036;2023-04-06T08:22:24;145121.31;;;7.86;52.59
28354;BME280;15603;50.878;8.036;2023-04-06T08:24:51;145114.00;;;7.83;53.42
28354;BME280;15603;50.878;8.036;2023-04-06T08:27:18;145168.59;;;8.06;52.58
28354;BME280;15603;50.878;8.036;2023-04-06T08:29:45;145206.25;;;8.22;50.35
28354;BME280;15603;50.878;8.036;2023-04-06T08:32:12;145099.47;;;7.77;51.07
28354;BME280;15603;50.878;8.036;2023-04-06T08:34:39;145162.53;;;8.03;50.35
28354;BME280;15603;50.878;8.036;2023-04-06T08:37:06;145195.28;;;8.17;50.32
28354;BME280;15603;50.878;8.036;2023-04-06T08:39:33;145200.16;;;8.19;49.71
28354;BME280;15603;50.878;8.036;2023-04-06T08:42:01;145223.19;;;8.29;49.81
28354;BME280;15603;50.878;8.036;2023-04-06T08:44:31;145208.66;;;8.23;50.09
28354;BME280;15603;50.878;8.036;2023-04-06T08:46:59;145322.78;;;8.71;50.66
28354;BME280;15603;50.878;8.036;2023-04-06T08:49:27;145342.19;;;8.79;49.96
28354;BME280;15603;50.878;8.036;2023-04-06T08:51:55;145391.97;;;9.00;49.56
28354;BME280;15603;50.878;8.036;2023-04-06T08:54:22;145394.41;;;9.01;48.70
28354;BME280;15603;50.878;8.036;2023-04-06T08:56:49;145456.34;;;9.28;48.00
28354;BME280;15603;50.878;8.036;2023-04-06T08:59:17;145487.88;;;9.41;48.86
28354;BME280;15603;50.878;8.036;2023-04-06T09:01:44;145497.63;;;9.45;47.87
28354;BME280;15603;50.878;8.036;2023-04-06T09:04:13;145502.50;;;9.47;47.90
28354;BME280;15603;50.878;8.036;2023-04-06T09:06:41;145526.78;;;9.57;47.41
28354;BME280;15603;50.878;8.036;2023-04-06T09:09:08;145555.91;;;9.70;47.72
28354;BME280;15603;50.878;8.036;2023-04-06T09:11:49;145580.22;;;9.80;46.71
28354;BME280;15603;50.878;8.036;2023-04-06T09:14:17;145597.19;;;9.87;47.02
28354;BME280;15603;50.878;8.036;2023-04-06T09:20:05;145628.78;;;10.00;45.17
28354;BME280;15603;50.878;8.036;2023-04-06T09:22:38;145621.53;;;9.97;45.61
28354;BME280;15603;50.878;8.036;2023-04-06T09:25:08;145693.22;;;10.28;44.83
28354;BME280;15603;50.878;8.036;2023-04-06T09:27:37;145683.47;;;10.23;44.98
28354;BME280;15603;50.878;8.036;2023-04-06T09:30:09;145691.97;;;10.27;44.52
28354;BME280;15603;50.878;8.036;2023-04-06T09:32:51;145696.84;;;10.29;43.36
28354;BME280;15603;50.878;8.036;2023-04-06T09:35:19;145707.84;;;10.34;44.04
28354;BME280;15603;50.878;8.036;2023-04-06T09:37:48;145706.59;;;10.33;43.96
28354;BME280;15603;50.878;8.036;2023-04-06T09:40:15;145633.66;;;10.02;44.02
28354;BME280;15603;50.878;8.036;2023-04-06T09:42:48;145709.06;;;10.34;43.05
28354;BME280;15603;50.878;8.036;2023-04-06T09:45:19;145785.63;;;10.67;44.91
28354;BME280;15603;50.878;8.036;2023-04-06T09:47:46;145784.38;;;10.66;43.23
28354;BME280;15603;50.878;8.036;2023-04-06T09:50:14;145728.50;;;10.43;42.73
28354;BME280;15603;50.878;8.036;2023-04-06T09:52:48;145783.19;;;10.66;45.88
28354;BME280;15603;50.878;8.036;2023-04-06T09:55:22;145826.97;;;10.84;44.35
28354;BME280;15603;50.878;8.036;2023-04-06T09:57:57;145840.34;;;10.90;44.30
28354;BME280;15603;50.878;8.036;2023-04-06T10:00:25;145884.06;;;11.08;45.03
28354;BME280;15603;50.878;8.036;2023-04-06T10:08:09;145972.88;;;11.46;47.09
28354;BME280;15603;50.878;8.036;2023-04-06T10:10:37;145963.16;;;11.42;46.34
28354;BME280;15603;50.878;8.036;2023-04-06T10:13:05;145983.81;;;11.50;44.57
28354;BME280;15603;50.878;8.036;2023-04-06T10:15:33;145978.94;;;11.48;45.56
28354;BME280;15603;50.878;8.036;2023-04-06T10:18:00;146053.13;;;11.79;46.46
28354;BME280;15603;50.878;8.036;2023-04-06T10:20:39;146066.50;;;11.85;44.49
28354;BME280;15603;50.878;8.036;2023-04-06T10:23:41;146050.72;;;11.78;44.98
28354;BME280;15603;50.878;8.036;2023-04-06T10:26:14;146120.09;;;12.08;45.82
28354;BME280;15603;50.878;8.036;2023-04-06T10:28:44;146087.25;;;11.94;44.94
28354;BME280;15603;50.878;8.036;2023-04-06T10:31:12;146020.28;;;11.66;45.80
28354;BME280;15603;50.878;8.036;2023-04-06T10:33:39;146011.78;;;11.62;44.99
28354;BME280;15603;50.878;8.036;2023-04-06T10:36:15;145976.53;;;11.47;43.00
28354;BME280;15603;50.878;8.036;2023-04-06T10:38:56;146016.63;;;11.64;43.44
28354;BME280;15603;50.878;8.036;2023-04-06T10:41:35;146047.06;;;11.77;41.05
28354;BME280;15603;50.878;8.036;2023-04-06T10:44:02;146019.09;;;11.65;42.18
28354;BME280;15603;50.878;8.036;2023-04-06T10:46:30;146019.09;;;11.65;43.93
28354;BME280;15603;50.878;8.036;2023-04-06T10:49:09;146088.47;;;11.94;40.92
28354;BME280;15603;50.878;8.036;2023-04-06T10:51:38;146168.78;;;12.28;42.60
28354;BME280;15603;50.878;8.036;2023-04-06T10:54:06;146078.72;;;11.90;42.43
28354;BME280;15603;50.878;8.036;2023-04-06T10:56:36;146076.28;;;11.89;44.63
28354;BME280;15603;50.878;8.036;2023-04-06T10:59:05;146155.41;;;12.23;43.80
28354;BME280;15603;50.878;8.036;2023-04-06T11:01:33;146253.94;;;12.64;41.08
28354;BME280;15603;50.878;8.036;2023-04-06T11:04:00;146227.22;;;12.53;42.47
28354;BME280;15603;50.878;8.036;2023-04-06T11:06:29;146312.38;;;12.89;42.52
28354;BME280;15603;50.878;8.036;2023-04-06T11:08:58;146373.28;;;13.14;40.99
28354;BME280;15603;50.878;8.036;2023-04-06T11:11:25;146348.91;;;13.04;40.89
28354;BME280;15603;50.878;8.036;2023-04-06T11:13:55;146271.00;;;12.71;39.98
28354;BME280;15603;50.878;8.036;2023-04-06T11:16:27;146368.38;;;13.12;41.54
28354;BME280;15603;50.878;8.036;2023-04-06T11:18:59;146443.94;;;13.44;40.55
28354;BME280;15603;50.878;8.036;2023-04-06T11:22:05;146482.94;;;13.61;40.43
28354;BME280;15603;50.878;8.036;2023-04-06T11:24:33;146493.88;;;13.65;41.26
28354;BME280;15603;50.878;8.036;2023-04-06T11:27:00;146486.56;;;13.62;39.96
28354;BME280;15603;50.878;8.036;2023-04-06T11:29:31;146398.81;;;13.25;39.63
28354;BME280;15603;50.878;8.036;2023-04-06T11:32:05;146422.00;;;13.35;39.46
28354;BME280;15603;50.878;8.036;2023-04-06T11:34:35;146433.00;;;13.40;39.58
28354;BME280;15603;50.878;8.036;2023-04-06T11:37:08;146484.13;;;13.61;39.01
28354;BME280;15603;50.878;8.036;2023-04-06T11:42:10;146563.31;;;13.94;37.89
28354;BME280;15603;50.878;8.036;2023-04-06T11:44:43;146619.34;;;14.18;37.94
28354;BME280;15603;50.878;8.036;2023-04-06T11:47:13;146568.16;;;13.97;39.06
28354;BME280;15603;50.878;8.036;2023-04-06T11:49:42;146547.47;;;13.88;38.92
28354;BME280;15603;50.878;8.036;2023-04-06T11:52:19;146503.63;;;13.69;39.60
28354;BME280;15603;50.878;8.036;2023-04-06T11:54:47;146599.84;;;14.10;38.22
28354;BME280;15603;50.878;8.036;2023-04-06T11:57:15;146518.22;;;13.75;39.78
28354;BME280;15603;50.878;8.036;2023-04-06T11:59:44;146607.19;;;14.13;39.83
28354;BME280;15603;50.878;8.036;2023-04-06T12:02:11;146543.81;;;13.86;39.86
28354;BME280;15603;50.878;8.036;2023-04-06T12:04:38;146519.47;;;13.76;39.15
28354;BME280;15603;50.878;8.036;2023-04-06T12:07:06;146508.47;;;13.71;39.38
28354;BME280;15603;50.878;8.036;2023-04-06T12:09:33;146400.03;;;13.26;40.79
28354;BME280;15603;50.878;8.036;2023-04-06T12:12:01;146400.03;;;13.26;40.46
28354;BME280;15603;50.878;8.036;2023-04-06T12:14:29;146279.53;;;12.75;42.50
28354;BME280;15603;50.878;8.036;2023-04-06T12:16:58;146375.69;;;13.15;40.71
28354;BME280;15603;50.878;8.036;2023-04-06T12:19:25;146441.47;;;13.43;42.05
28354;BME280;15603;50.878;8.036;2023-04-06T12:21:53;146461.00;;;13.51;41.40
28354;BME280;15603;50.878;8.036;2023-04-06T12:24:21;146490.22;;;13.64;42.10
28354;BME280;15603;50.878;8.036;2023-04-06T12:26:48;146563.31;;;13.94;39.27
28354;BME280;15603;50.878;8.036;2023-04-06T12:29:25;146569.38;;;13.97;40.56
28354;BME280;15603;50.878;8.036;2023-04-06T12:31:52;146658.34;;;14.34;39.51
28354;BME280;15603;50.878;8.036;2023-04-06T12:34:20;146632.72;;;14.24;40.77
28354;BME280;15603;50.878;8.036;2023-04-06T12:36:47;146624.19;;;14.20;40.34
28354;BME280;15603;50.878;8.036;2023-04-06T12:39:15;146712.03;;;14.57;39.92
28354;BME280;15603;50.878;8.036;2023-04-06T12:41:46;146665.66;;;14.38;39.41
28354;BME280;15603;50.878;8.036;2023-04-06T12:44:13;146741.25;;;14.69;40.02
28354;BME280;15603;50.878;8.036;2023-04-06T12:46:40;146765.63;;;14.80;39.75
28354;BME280;15603;50.878;8.036;2023-04-06T12:49:07;146690.03;;;14.48;39.41
28354;BME280;15603;50.878;8.036;2023-04-06T12:51:34;146663.22;;;14.37;39.06
28354;BME280;15603;50.878;8.036;2023-04-06T12:54:01;146800.97;;;14.95;39.70
28354;BME280;15603;50.878;8.036;2023-04-06T12:56:28;146760.75;;;14.78;40.11
28354;BME280;15603;50.878;8.036;2023-04-06T12:58:55;146733.94;;;14.66;39.50
28354;BME280;15603;50.878;8.036;2023-04-06T13:01:23;146790.03;;;14.90;42.14
28354;BME280;15603;50.878;8.036;2023-04-06T13:03:50;146636.41;;;14.25;41.19
28354;BME280;15603;50.878;8.036;2023-04-06T13:06:18;146660.75;;;14.36;39.96
28354;BME280;15603;50.878;8.036;2023-04-06T13:08:45;146694.91;;;14.50;39.20
28354;BME280;15603;50.878;8.036;2023-04-06T13:11:14;146634.00;;;14.24;40.18
28354;BME280;15603;50.878;8.036;2023-04-06T13:13:41;146703.44;;;14.53;40.80
28354;BME280;15603;50.878;8.036;2023-04-06T13:16:08;146751.00;;;14.73;39.40